sensor_id;sensor_type;location;lat;lon;timestamp;temperature;humidity
3876;DHT22;1953;51.222;6.624;2023-08-07T00:01:05;14.40;1.00
3876;DHT22;1953;51.222;6.624;2023-08-07T00:05:48;14.40;1.00
3876;DHT22;1953;51.222;6.624;2023-08-07T00:10:32;14.30;1.00
3876;DHT22;1953;51.222;6.624;2023-08-07T00:16:04;14.20;1.00
3876;DHT22;1953;51.222;6.624;2023-08-07T00:20:46;14.20;1.00
3876;DHT22;1953;51.222;6.624;2023-08-07T00:25:29;14.30;1.00
3876;DHT22;1953;51.222;6.624;2023-08-07T00:30:12;14.30;1.00
3876;DHT22;1953;51.222;6.624;2023-08-07T00:34:56;14.30;1.00
3876;DHT22;1953;51.222;6.624;2023-08-07T00:39:38;14.30;1.00
3876;DHT22;1953;51.222;6.624;2023-08-07T00:44:21;14.40;1.00
3876;DHT22;1953;51.222;6.624;2023-08-07T00:49:04;14.30;1.00
3876;DHT22;1953;51.222;6.624;2023-08-07T00:53:49;14.30;1.00
3876;DHT22;1953;51.222;6.624;2023-08-07T00:58:32;14.30;1.00
3876;DHT22;1953;51.222;6.624;2023-08-07T01:03:14;14.30;1.00
3876;DHT22;1953;51.222;6.624;2023-08-07T01:07:57;14.30;1.00
3876;DHT22;1953;51.222;6.624;2023-08-07T01:12:48;14.30;1.00
3876;DHT22;1953;51.222;6.624;2023-08-07T01:17:32;14.30;1.00
3876;DHT22;1953;51.222;6.624;2023-08-07T01:22:18;14.30;1.00
3876;DHT22;1953;51.222;6.624;2023-08-07T01:27:09;14.40;1.00
3876;DHT22;1953;51.222;6.624;2023-08-07T01:31:53;14.50;1.00
3876;DHT22;1953;51.222;6.624;2023-08-07T01:36:39;14.40;1.00
3876;DHT22;1953;51.222;6.624;2023-08-07T01:41:23;14.40;1.00
3876;DHT22;1953;51.222;6.624;2023-08-07T01:46:06;14.40;1.00
3876;DHT22;1953;51.222;6.624;2023-08-07T01:50:49;14.50;1.00
3876;DHT22;1953;51.222;6.624;2023-08-07T01:55:32;14.40;1.00
3876;DHT22;1953;51.222;6.624;2023-08-07T02:00:16;14.40;1.00
3876;DHT22;1953;51.222;6.624;2023-08-07T02:04:58;14.30;1.00
3876;DHT22;1953;51.222;6.624;2023-08-07T02:09:41;14.20;1.00
3876;DHT22;1953;51.222;6.624;2023-08-07T02:14:23;14.10;1.00
3876;DHT22;1953;51.222;6.624;2023-08-07T02:19:07;14.10;1.00
3876;DHT22;1953;51.222;6.624;2023-08-07T02:23:50;14.10;1.00
3876;DHT22;1953;51.222;6.624;2023-08-07T02:28:32;14.10;1.00
3876;DHT22;1953;51.222;6.624;2023-08-07T02:33:15;14.00;1.00
3876;DHT22;1953;51.222;6.624;2023-08-07T02:37:59;14.00;1.00
3876;DHT22;1953;51.222;6.624;2023-08-07T02:42:41;13.90;1.00
3876;DHT22;1953;51.222;6.624;2023-08-07T02:47:24;14.00;1.00
3876;DHT22;1953;51.222;6.624;2023-08-07T02:52:07;14.10;1.00
3876;DHT22;1953;51.222;6.624;2023-08-07T02:56:51;14.10;1.00
3876;DHT22;1953;51.222;6.624;2023-08-07T03:01:33;14.00;1.00
3876;DHT22;1953;51.222;6.624;2023-08-07T03:06:16;14.10;1.00
3876;DHT22;1953;51.222;6.624;2023-08-07T03:10:59;14.10;1.00
3876;DHT22;1953;51.222;6.624;2023-08-07T03:15:43;14.10;1.00
3876;DHT22;1953;51.222;6.624;2023-08-07T03:20:25;14.10;1.00
3876;DHT22;1953;51.222;6.624;2023-08-07T03:25:08;14.10;1.00
3876;DHT22;1953;51.222;6.624;2023-08-07T03:29:51;14.00;1.00
3876;DHT22;1953;51.222;6.624;2023-08-07T03:34:35;14.00;1.00
3876;DHT22;1953;51.222;6.624;2023-08-07T03:39:17;14.00;1.00
3876;DHT22;1953;51.222;6.624;2023-08-07T03:44:00;14.00;1.00
3876;DHT22;1953;51.222;6.624;2023-08-07T03:48:42;14.00;1.00
3876;DHT22;1953;51.222;6.624;2023-08-07T03:53:26;14.00;1.00
3876;DHT22;1953;51.222;6.624;2023-08-07T03:58:09;14.00;1.00
3876;DHT22;1953;51.222;6.624;2023-08-07T04:02:51;14.00;1.00
3876;DHT22;1953;51.222;6.624;2023-08-07T04:07:34;14.00;1.00
3876;DHT22;1953;51.222;6.624;2023-08-07T04:12:17;14.00;1.00
3876;DHT22;1953;51.222;6.624;2023-08-07T04:17:00;14.00;1.00
3876;DHT22;1953;51.222;6.624;2023-08-07T04:21:43;14.10;1.00
3876;DHT22;1953;51.222;6.624;2023-08-07T04:26:25;14.10;1.00
3876;DHT22;1953;51.222;6.624;2023-08-07T04:31:10;14.10;1.00
3876;DHT22;1953;51.222;6.624;2023-08-07T04:35:52;14.10;1.00
3876;DHT22;1953;51.222;6.624;2023-08-07T04:40:35;14.20;1.00
3876;DHT22;1953;51.222;6.624;2023-08-07T04:45:17;14.20;1.00
3876;DHT22;1953;51.222;6.624;2023-08-07T04:50:01;14.20;1.00
3876;DHT22;1953;51.222;6.624;2023-08-07T04:54:44;14.20;1.00
3876;DHT22;1953;51.222;6.624;2023-08-07T04:59:26;14.20;1.00
3876;DHT22;1953;51.222;6.624;2023-08-07T05:04:11;14.30;1.00
3876;DHT22;1953;51.222;6.624;2023-08-07T05:08:55;14.30;1.00
3876;DHT22;1953;51.222;6.624;2023-08-07T05:13:37;14.30;1.00
3876;DHT22;1953;51.222;6.624;2023-08-07T05:18:20;14.30;1.00
3876;DHT22;1953;51.222;6.624;2023-08-07T05:23:02;14.40;1.00
3876;DHT22;1953;51.222;6.624;2023-08-07T05:27:47;14.40;1.00
3876;DHT22;1953;51.222;6.624;2023-08-07T05:32:29;14.40;1.00
3876;DHT22;1953;51.222;6.624;2023-08-07T05:37:13;14.30;1.00
3876;DHT22;1953;51.222;6.624;2023-08-07T05:41:56;14.40;1.00
3876;DHT22;1953;51.222;6.624;2023-08-07T05:46:40;14.30;1.00
3876;DHT22;1953;51.222;6.624;2023-08-07T05:51:22;14.30;1.00
3876;DHT22;1953;51.222;6.624;2023-08-07T05:56:05;14.30;1.00
3876;DHT22;1953;51.222;6.624;2023-08-07T06:00:47;14.30;1.00
3876;DHT22;1953;51.222;6.624;2023-08-07T06:05:31;14.30;1.00
3876;DHT22;1953;51.222;6.624;2023-08-07T06:10:14;13.20;1.00
3876;DHT22;1953;51.222;6.624;2023-08-07T06:14:56;14.30;1.00
3876;DHT22;1953;51.222;6.624;2023-08-07T06:19:39;14.30;1.00
3876;DHT22;1953;51.222;6.624;2023-08-07T06:24:23;14.30;1.00
3876;DHT22;1953;51.222;6.624;2023-08-07T06:29:06;14.30;1.00
3876;DHT22;1953;51.222;6.624;2023-08-07T06:33:49;14.30;1.00
3876;DHT22;1953;51.222;6.624;2023-08-07T06:38:32;14.20;1.00
3876;DHT22;1953;51.222;6.624;2023-08-07T06:43:16;14.20;1.00
3876;DHT22;1953;51.222;6.624;2023-08-07T06:47:58;14.10;1.00
3876;DHT22;1953;51.222;6.624;2023-08-07T06:52:41;14.00;1.00
3876;DHT22;1953;51.222;6.624;2023-08-07T06:57:23;14.00;1.00
3876;DHT22;1953;51.222;6.624;2023-08-07T07:02:07;14.10;1.00
3876;DHT22;1953;51.222;6.624;2023-08-07T07:06:50;14.10;1.00
3876;DHT22;1953;51.222;6.624;2023-08-07T07:11:33;14.10;1.00
3876;DHT22;1953;51.222;6.624;2023-08-07T07:16:16;14.10;1.00
3876;DHT22;1953;51.222;6.624;2023-08-07T07:21:00;14.20;1.00
3876;DHT22;1953;51.222;6.624;2023-08-07T07:25:42;14.20;1.00
3876;DHT22;1953;51.222;6.624;2023-08-07T07:30:25;14.20;1.00
3876;DHT22;1953;51.222;6.624;2023-08-07T07:35:08;14.30;1.00
3876;DHT22;1953;51.222;6.624;2023-08-07T07:39:52;14.30;1.00
3876;DHT22;1953;51.222;6.624;2023-08-07T07:44:34;14.30;1.00
3876;DHT22;1953;51.222;6.624;2023-08-07T07:49:17;14.30;1.00
3876;DHT22;1953;51.222;6.624;2023-08-07T07:54:00;14.30;1.00
3876;DHT22;1953;51.222;6.624;2023-08-07T07:58:44;14.40;1.00
3876;DHT22;1953;51.222;6.624;2023-08-07T08:03:27;14.50;1.00
3876;DHT22;1953;51.222;6.624;2023-08-07T08:08:09;14.60;1.00
3876;DHT22;1953;51.222;6.624;2023-08-07T08:12:54;14.60;1.00
3876;DHT22;1953;51.222;6.624;2023-08-07T08:17:38;14.70;1.00
3876;DHT22;1953;51.222;6.624;2023-08-07T08:22:21;14.70;1.00
3876;DHT22;1953;51.222;6.624;2023-08-07T08:27:04;14.70;1.00
3876;DHT22;1953;51.222;6.624;2023-08-07T08:31:46;14.80;1.00
3876;DHT22;1953;51.222;6.624;2023-08-07T08:36:30;14.90;1.00
3876;DHT22;1953;51.222;6.624;2023-08-07T08:41:13;15.10;1.00
3876;DHT22;1953;51.222;6.624;2023-08-07T08:45:55;15.10;1.00
3876;DHT22;1953;51.222;6.624;2023-08-07T08:50:39;15.10;1.00
3876;DHT22;1953;51.222;6.624;2023-08-07T08:55:23;16.20;1.00
3876;DHT22;1953;51.222;6.624;2023-08-07T09:00:07;15.50;1.00
3876;DHT22;1953;51.222;6.624;2023-08-07T09:04:58;15.70;1.00
3876;DHT22;1953;51.222;6.624;2023-08-07T09:09:41;15.80;1.00
3876;DHT22;1953;51.222;6.624;2023-08-07T09:14:30;16.10;1.00
3876;DHT22;1953;51.222;6.624;2023-08-07T09:19:13;16.40;1.00
3876;DHT22;1953;51.222;6.624;2023-08-07T09:23:55;16.50;1.00
3876;DHT22;1953;51.222;6.624;2023-08-07T09:28:38;16.50;1.00
3876;DHT22;1953;51.222;6.624;2023-08-07T09:33:25;16.80;1.00
3876;DHT22;1953;51.222;6.624;2023-08-07T09:38:08;16.90;1.00
3876;DHT22;1953;51.222;6.624;2023-08-07T09:42:52;16.90;1.00
3876;DHT22;1953;51.222;6.624;2023-08-07T09:47:34;17.00;1.00
3876;DHT22;1953;51.222;6.624;2023-08-07T09:52:18;17.20;1.00
3876;DHT22;1953;51.222;6.624;2023-08-07T09:57:01;17.40;1.00
3876;DHT22;1953;51.222;6.624;2023-08-07T10:01:44;17.40;1.00
3876;DHT22;1953;51.222;6.624;2023-08-07T10:06:27;17.50;1.00
3876;DHT22;1953;51.222;6.624;2023-08-07T10:11:11;17.70;1.00
3876;DHT22;1953;51.222;6.624;2023-08-07T10:15:55;17.70;1.00
3876;DHT22;1953;51.222;6.624;2023-08-07T10:20:38;18.00;1.00
3876;DHT22;1953;51.222;6.624;2023-08-07T10:26:15;18.20;1.00
3876;DHT22;1953;51.222;6.624;2023-08-07T10:30:58;18.20;1.00
3876;DHT22;1953;51.222;6.624;2023-08-07T10:35:45;18.30;1.00
3876;DHT22;1953;51.222;6.624;2023-08-07T10:40:31;18.70;1.00
3876;DHT22;1953;51.222;6.624;2023-08-07T10:45:17;18.90;1.00
3876;DHT22;1953;51.222;6.624;2023-08-07T10:49:59;19.00;1.00
3876;DHT22;1953;51.222;6.624;2023-08-07T10:54:45;18.90;1.00
3876;DHT22;1953;51.222;6.624;2023-08-07T10:59:29;19.00;1.00
3876;DHT22;1953;51.222;6.624;2023-08-07T11:04:15;19.10;1.00
3876;DHT22;1953;51.222;6.624;2023-08-07T11:08:58;19.10;1.00
3876;DHT22;1953;51.222;6.624;2023-08-07T11:13:40;19.30;1.00
3876;DHT22;1953;51.222;6.624;2023-08-07T11:18:23;19.40;1.00
3876;DHT22;1953;51.222;6.624;2023-08-07T11:23:07;19.30;1.00
3876;DHT22;1953;51.222;6.624;2023-08-07T11:27:49;19.30;1.00
3876;DHT22;1953;51.222;6.624;2023-08-07T11:32:32;19.40;1.00
3876;DHT22;1953;51.222;6.624;2023-08-07T11:37:15;19.50;1.00
3876;DHT22;1953;51.222;6.624;2023-08-07T11:42:00;19.60;1.00
3876;DHT22;1953;51.222;6.624;2023-08-07T11:46:43;20.10;1.00
3876;DHT22;1953;51.222;6.624;2023-08-07T11:51:25;20.10;1.00
3876;DHT22;1953;51.222;6.624;2023-08-07T11:56:09;20.50;1.00
3876;DHT22;1953;51.222;6.624;2023-08-07T12:00:54;20.50;1.00
3876;DHT22;1953;51.222;6.624;2023-08-07T12:05:38;20.60;1.00
3876;DHT22;1953;51.222;6.624;2023-08-07T12:10:23;20.90;1.00
3876;DHT22;1953;51.222;6.624;2023-08-07T12:17:05;21.00;1.00
3876;DHT22;1953;51.222;6.624;2023-08-07T12:21:48;21.20;1.00
3876;DHT22;1953;51.222;6.624;2023-08-07T12:26:30;21.30;1.00
3876;DHT22;1953;51.222;6.624;2023-08-07T12:31:13;21.50;1.00
3876;DHT22;1953;51.222;6.624;2023-08-07T12:35:57;21.90;1.00
3876;DHT22;1953;51.222;6.624;2023-08-07T12:40:40;22.40;1.00
3876;DHT22;1953;51.222;6.624;2023-08-07T12:45:22;22.80;1.00
3876;DHT22;1953;51.222;6.624;2023-08-07T12:50:05;23.10;1.00
3876;DHT22;1953;51.222;6.624;2023-08-07T12:54:49;23.70;1.00
3876;DHT22;1953;51.222;6.624;2023-08-07T12:59:32;23.10;1.00
3876;DHT22;1953;51.222;6.624;2023-08-07T13:04:14;24.00;1.00
3876;DHT22;1953;51.222;6.624;2023-08-07T13:08:57;24.40;1.00
3876;DHT22;1953;51.222;6.624;2023-08-07T13:13:43;25.10;1.00
3876;DHT22;1953;51.222;6.624;2023-08-07T13:18:25;25.50;1.00
3876;DHT22;1953;51.222;6.624;2023-08-07T13:23:08;25.70;1.00
3876;DHT22;1953;51.222;6.624;2023-08-07T13:27:50;25.20;1.00
3876;DHT22;1953;51.222;6.624;2023-08-07T13:32:35;25.00;1.00
3876;DHT22;1953;51.222;6.624;2023-08-07T13:42:55;25.90;1.00
3876;DHT22;1953;51.222;6.624;2023-08-07T13:47:39;26.00;1.00
3876;DHT22;1953;51.222;6.624;2023-08-07T13:52:22;25.50;1.00
3876;DHT22;1953;51.222;6.624;2023-08-07T13:57:05;25.30;1.00
3876;DHT22;1953;51.222;6.624;2023-08-07T14:01:48;25.60;1.00
3876;DHT22;1953;51.222;6.624;2023-08-07T14:06:32;27.70;1.00
3876;DHT22;1953;51.222;6.624;2023-08-07T14:11:15;25.40;1.00
3876;DHT22;1953;51.222;6.624;2023-08-07T14:21:37;23.20;1.00
3876;DHT22;1953;51.222;6.624;2023-08-07T14:26:19;22.50;1.00
3876;DHT22;1953;51.222;6.624;2023-08-07T14:36:22;22.60;1.00
3876;DHT22;1953;51.222;6.624;2023-08-07T14:41:05;23.10;1.00
3876;DHT22;1953;51.222;6.624;2023-08-07T14:56:47;23.00;1.00
3876;DHT22;1953;51.222;6.624;2023-08-07T15:12:28;22.40;1.00
3876;DHT22;1953;51.222;6.624;2023-08-07T15:22:31;23.60;1.00
3876;DHT22;1953;51.222;6.624;2023-08-07T15:38:49;23.40;1.00
3876;DHT22;1953;51.222;6.624;2023-08-07T15:43:32;23.90;1.00
3876;DHT22;1953;51.222;6.624;2023-08-07T15:48:15;23.50;1.00
3876;DHT22;1953;51.222;6.624;2023-08-07T15:58:36;21.70;1.00
3876;DHT22;1953;51.222;6.624;2023-08-07T16:53:41;23.90;1.00
3876;DHT22;1953;51.222;6.624;2023-08-07T16:58:24;22.80;1.00
3876;DHT22;1953;51.222;6.624;2023-08-07T17:03:07;22.30;1.00
3876;DHT22;1953;51.222;6.624;2023-08-07T17:07:51;22.30;1.00
3876;DHT22;1953;51.222;6.624;2023-08-07T17:12:35;22.30;1.00
3876;DHT22;1953;51.222;6.624;2023-08-07T17:17:18;21.80;1.00
3876;DHT22;1953;51.222;6.624;2023-08-07T17:22:00;21.50;1.00
3876;DHT22;1953;51.222;6.624;2023-08-07T17:26:44;21.40;1.00
3876;DHT22;1953;51.222;6.624;2023-08-07T17:31:28;21.10;1.00
3876;DHT22;1953;51.222;6.624;2023-08-07T17:36:10;21.20;1.00
3876;DHT22;1953;51.222;6.624;2023-08-07T17:40:53;21.00;1.00
3876;DHT22;1953;51.222;6.624;2023-08-07T17:45:36;20.90;1.00
3876;DHT22;1953;51.222;6.624;2023-08-07T17:50:20;21.00;1.00
3876;DHT22;1953;51.222;6.624;2023-08-07T17:55:03;21.10;1.00
3876;DHT22;1953;51.222;6.624;2023-08-07T17:59:45;21.00;1.00
3876;DHT22;1953;51.222;6.624;2023-08-07T18:04:28;20.90;1.00
3876;DHT22;1953;51.222;6.624;2023-08-07T18:09:12;20.80;1.00
3876;DHT22;1953;51.222;6.624;2023-08-07T18:13:54;20.80;1.00
3876;DHT22;1953;51.222;6.624;2023-08-07T18:18:37;20.80;1.00
3876;DHT22;1953;51.222;6.624;2023-08-07T18:23:20;20.70;1.00
3876;DHT22;1953;51.222;6.624;2023-08-07T18:28:04;20.70;1.00
3876;DHT22;1953;51.222;6.624;2023-08-07T18:32:47;20.70;1.00
3876;DHT22;1953;51.222;6.624;2023-08-07T18:37:29;20.60;1.00
3876;DHT22;1953;51.222;6.624;2023-08-07T18:42:12;20.30;1.00
3876;DHT22;1953;51.222;6.624;2023-08-07T18:46:56;20.10;1.00
3876;DHT22;1953;51.222;6.624;2023-08-07T18:51:38;19.90;1.00
3876;DHT22;1953;51.222;6.624;2023-08-07T18:56:21;19.80;1.00
3876;DHT22;1953;51.222;6.624;2023-08-07T19:01:04;19.60;1.00
3876;DHT22;1953;51.222;6.624;2023-08-07T19:05:48;19.40;1.00
3876;DHT22;1953;51.222;6.624;2023-08-07T19:10:30;19.20;1.00
3876;DHT22;1953;51.222;6.624;2023-08-07T19:15:13;19.20;1.00
3876;DHT22;1953;51.222;6.624;2023-08-07T19:19:57;19.10;1.00
3876;DHT22;1953;51.222;6.624;2023-08-07T19:24:41;19.00;1.00
3876;DHT22;1953;51.222;6.624;2023-08-07T19:29:23;19.00;1.00
3876;DHT22;1953;51.222;6.624;2023-08-07T19:34:06;18.90;1.00
3876;DHT22;1953;51.222;6.624;2023-08-07T19:38:51;18.80;1.00
3876;DHT22;1953;51.222;6.624;2023-08-07T19:43:34;18.70;1.00
3876;DHT22;1953;51.222;6.624;2023-08-07T19:48:17;18.70;1.00
3876;DHT22;1953;51.222;6.624;2023-08-07T19:53:00;18.60;1.00
3876;DHT22;1953;51.222;6.624;2023-08-07T19:57:43;18.60;1.00
3876;DHT22;1953;51.222;6.624;2023-08-07T20:02:27;18.50;1.00
3876;DHT22;1953;51.222;6.624;2023-08-07T20:07:09;18.30;1.00
3876;DHT22;1953;51.222;6.624;2023-08-07T20:11:52;18.30;1.00
3876;DHT22;1953;51.222;6.624;2023-08-07T20:16:34;18.30;1.00
3876;DHT22;1953;51.222;6.624;2023-08-07T20:21:18;18.20;1.00
3876;DHT22;1953;51.222;6.624;2023-08-07T20:26:01;18.10;1.00
3876;DHT22;1953;51.222;6.624;2023-08-07T20:30:44;18.00;1.00
3876;DHT22;1953;51.222;6.624;2023-08-07T20:35:26;17.90;1.00
3876;DHT22;1953;51.222;6.624;2023-08-07T20:40:11;17.80;1.00
3876;DHT22;1953;51.222;6.624;2023-08-07T20:44:54;17.80;1.00
3876;DHT22;1953;51.222;6.624;2023-08-07T20:49:37;17.70;1.00
3876;DHT22;1953;51.222;6.624;2023-08-07T20:54:19;17.60;1.00
3876;DHT22;1953;51.222;6.624;2023-08-07T20:59:03;17.60;1.00
3876;DHT22;1953;51.222;6.624;2023-08-07T21:03:46;17.50;1.00
3876;DHT22;1953;51.222;6.624;2023-08-07T21:08:29;17.50;1.00
3876;DHT22;1953;51.222;6.624;2023-08-07T21:13:11;17.50;1.00
3876;DHT22;1953;51.222;6.624;2023-08-07T21:17:55;17.40;1.00
3876;DHT22;1953;51.222;6.624;2023-08-07T21:22:39;17.40;1.00
3876;DHT22;1953;51.222;6.624;2023-08-07T21:27:22;17.40;1.00
3876;DHT22;1953;51.222;6.624;2023-08-07T21:32:06;17.30;1.00
3876;DHT22;1953;51.222;6.624;2023-08-07T21:36:50;17.30;1.00
3876;DHT22;1953;51.222;6.624;2023-08-07T21:41:32;17.20;1.00
3876;DHT22;1953;51.222;6.624;2023-08-07T21:46:15;17.30;1.00
3876;DHT22;1953;51.222;6.624;2023-08-07T21:50:57;17.30;1.00
3876;DHT22;1953;51.222;6.624;2023-08-07T21:55:41;17.30;1.00
3876;DHT22;1953;51.222;6.624;2023-08-07T22:00:24;17.30;1.00
3876;DHT22;1953;51.222;6.624;2023-08-07T22:05:07;17.20;1.00
3876;DHT22;1953;51.222;6.624;2023-08-07T22:09:50;17.10;1.00
3876;DHT22;1953;51.222;6.624;2023-08-07T22:14:34;17.00;1.00
3876;DHT22;1953;51.222;6.624;2023-08-07T22:19:16;17.00;1.00
3876;DHT22;1953;51.222;6.624;2023-08-07T22:23:59;16.90;1.00
3876;DHT22;1953;51.222;6.624;2023-08-07T22:28:42;16.90;1.00
3876;DHT22;1953;51.222;6.624;2023-08-07T22:33:26;16.90;1.00
3876;DHT22;1953;51.222;6.624;2023-08-07T22:38:08;16.80;1.00
3876;DHT22;1953;51.222;6.624;2023-08-07T22:42:51;16.80;1.00
3876;DHT22;1953;51.222;6.624;2023-08-07T22:47:33;16.80;1.00
3876;DHT22;1953;51.222;6.624;2023-08-07T22:52:17;16.70;1.00
3876;DHT22;1953;51.222;6.624;2023-08-07T22:57:00;16.70;1.00
3876;DHT22;1953;51.222;6.624;2023-08-07T23:01:42;16.70;1.00
3876;DHT22;1953;51.222;6.624;2023-08-07T23:06:25;16.70;1.00
3876;DHT22;1953;51.222;6.624;2023-08-07T23:11:08;16.70;1.00
3876;DHT22;1953;51.222;6.624;2023-08-07T23:15:51;16.70;1.00
3876;DHT22;1953;51.222;6.624;2023-08-07T23:20:33;16.60;1.00
3876;DHT22;1953;51.222;6.624;2023-08-07T23:25:16;16.60;1.00
3876;DHT22;1953;51.222;6.624;2023-08-07T23:30:00;16.60;1.00
3876;DHT22;1953;51.222;6.624;2023-08-07T23:34:44;16.50;1.00
3876;DHT22;1953;51.222;6.624;2023-08-07T23:39:27;16.40;1.00
3876;DHT22;1953;51.222;6.624;2023-08-07T23:44:09;16.40;1.00
3876;DHT22;1953;51.222;6.624;2023-08-07T23:48:53;16.30;1.00
3876;DHT22;1953;51.222;6.624;2023-08-07T23:53:36;16.30;1.00
3876;DHT22;1953;51.222;6.624;2023-08-07T23:58:18;16.20;1.00
